首页
METAR-TAF:

METAR-TAF

机场 :

索契國際機場

索契, 俄罗斯

纬度: 43-26N, 经度: 039-54E, 海拔: 16米

当前天气观测

该预报发布于39分钟前的15:00 UTC
风速10节,风向西
温度 12°C
湿度 67%
气压 1020 hPa
能见度10公里或以上

METAR: URSS 081500Z 28005MPS 9999 NSC 12/06 Q1020 R02/010070 R06/010070 NOSIG RMK R06/30005G09MPS QFE764

时间: 19:39 (15:39 UTC)

预报

该预报发布于1小时和43分钟前的13:56 UTC
预报有效从08日的 15点(UTC)到 09日的 15点(UTC)
风速12节,风向西,有时为21节阵风
能见度10公里或以上
成为
从 08日的 17点(UTC)到 08日的 18点(UTC)
风速10节,风向东北
成为
从 09日的 05点(UTC)到 09日的 06点(UTC)
风速8节,风向西南,有时为17节阵风
散云层高于3000英尺
成为
从 09日的 09点(UTC)到 09日的 11点(UTC)
风速10节,风向西,有时为19节阵风

TAF: URSS 081356Z 0815/0915 28006G11MPS 9999 NSC BECMG 0817/0818 05005MPS BECMG 0905/0906 23004G09MPS SCT030 BECMG 0909/0911 28005G10MPS

超过4000个机场的气象观测和天气预报(METAR&TAF报告)。

可查询的气象台以黄色和红色小点在地图上表示。

将鼠标移到小点上方,可查看气象台名称。

然后点击查看天气观测和预报。

如需切换地图:点击带黑十字的绿色按钮放大地图;点击带横线的绿色按钮缩小地图;或者点击绿色箭头查看邻近地区的地图。


METAR-TAF: